createdAt,value
2018-03-30T00:01:59.080Z,10.53
2018-03-30T00:04:27.515Z,8.30
2018-03-30T00:06:56.374Z,8.60
2018-03-30T00:09:36.242Z,9.00
2018-03-30T00:12:05.422Z,8.80
2018-03-30T00:14:33.844Z,8.60
2018-03-30T00:17:02.275Z,7.50
2018-03-30T00:19:30.694Z,8.73
2018-03-30T00:21:59.127Z,8.40
2018-03-30T00:24:27.546Z,10.33
2018-03-30T00:26:55.962Z,8.97
2018-03-30T00:29:24.390Z,9.20
2018-03-30T00:31:53.841Z,8.33
2018-03-30T00:34:23.534Z,9.63
2018-03-30T00:36:52.395Z,9.67
2018-03-30T00:39:20.831Z,8.10
2018-03-30T00:41:49.251Z,10.27
2018-03-30T00:44:18.434Z,7.57
2018-03-30T00:46:47.638Z,8.43
2018-03-30T00:49:16.817Z,11.43
2018-03-30T00:51:45.252Z,8.83
2018-03-30T00:54:13.679Z,10.07
2018-03-30T00:56:42.869Z,8.47
2018-03-30T00:59:11.290Z,9.60
2018-03-30T01:01:39.712Z,6.57
2018-03-30T01:04:08.118Z,8.17
2018-03-30T01:06:37.309Z,8.30
2018-03-30T01:09:05.866Z,8.00
2018-03-30T01:11:34.454Z,6.83
2018-03-30T01:14:02.872Z,8.07
2018-03-30T01:16:31.301Z,8.10
2018-03-30T01:18:59.715Z,7.73
2018-03-30T01:21:28.222Z,7.13
2018-03-30T01:23:56.649Z,8.73
2018-03-30T01:26:24.847Z,6.80
2018-03-30T01:28:54.695Z,7.23
2018-03-30T01:31:23.114Z,9.40
2018-03-30T01:33:51.628Z,7.57
2018-03-30T01:36:20.039Z,7.07
2018-03-30T01:38:48.461Z,7.80
2018-03-30T01:41:17.650Z,7.20
2018-03-30T01:43:46.096Z,8.10
2018-03-30T01:46:14.532Z,8.50
2018-03-30T01:48:43.121Z,9.60
2018-03-30T01:51:11.549Z,10.80
2018-03-30T01:53:39.952Z,8.20
2018-03-30T01:56:09.150Z,9.00
2018-03-30T01:58:38.330Z,10.20
2018-03-30T02:01:06.756Z,9.03
2018-03-30T02:03:35.176Z,9.03
2018-03-30T02:06:03.605Z,8.33
2018-03-30T02:08:32.044Z,11.63
2018-03-30T02:11:00.470Z,10.67
2018-03-30T02:13:28.921Z,11.33
2018-03-30T02:15:58.125Z,11.10
2018-03-30T02:18:26.714Z,10.10
2018-03-30T02:20:55.156Z,12.07
2018-03-30T02:23:23.862Z,10.70
2018-03-30T02:25:53.047Z,11.97
2018-03-30T02:28:22.266Z,14.80
2018-03-30T02:30:50.678Z,16.73
2018-03-30T02:33:19.115Z,15.87
2018-03-30T02:35:48.307Z,13.43
2018-03-30T02:41:13.592Z,15.47
2018-03-30T02:43:42.021Z,15.90
2018-03-30T02:46:10.437Z,17.20
2018-03-30T02:48:39.848Z,18.43
2018-03-30T02:51:08.262Z,16.90
2018-03-30T02:53:36.697Z,19.50
2018-03-30T02:56:04.810Z,21.23
2018-03-30T02:58:33.242Z,23.67
2018-03-30T03:01:02.465Z,19.77
2018-03-30T03:03:30.886Z,22.93
2018-03-30T03:05:58.986Z,27.23
2018-03-30T03:08:28.194Z,23.67
2018-03-30T03:10:56.610Z,26.17
2018-03-30T03:13:25.325Z,16.60
2018-03-30T03:15:53.745Z,16.60
2018-03-30T03:18:22.174Z,16.60
2018-03-30T03:20:50.584Z,17.27
2018-03-30T03:23:19.770Z,15.73
2018-03-30T03:25:48.632Z,14.43
2018-03-30T03:28:17.058Z,16.37
2018-03-30T03:30:45.494Z,14.80
2018-03-30T03:33:13.922Z,17.33
2018-03-30T03:35:42.359Z,16.63
2018-03-30T03:38:10.779Z,16.73
2018-03-30T03:40:39.207Z,19.77
2018-03-30T03:43:07.624Z,16.33
2018-03-30T03:45:36.059Z,18.47
2018-03-30T03:48:04.143Z,17.00
2018-03-30T03:50:32.581Z,16.83
2018-03-30T03:53:01.021Z,14.30
2018-03-30T03:55:30.210Z,13.23
2018-03-30T03:57:59.410Z,12.37
2018-03-30T04:00:28.607Z,11.30
2018-03-30T04:02:58.458Z,12.93
2018-03-30T04:05:27.616Z,11.87
2018-03-30T04:07:57.497Z,13.70
2018-03-30T04:10:26.414Z,11.53
2018-03-30T04:12:56.076Z,11.80
2018-03-30T04:15:24.519Z,12.37
2018-03-30T04:17:52.968Z,12.43
2018-03-30T04:20:21.394Z,12.27
2018-03-30T04:22:49.810Z,13.67
2018-03-30T04:25:18.266Z,13.00
2018-03-30T04:27:46.690Z,14.93
2018-03-30T04:30:15.894Z,15.10
2018-03-30T04:32:45.090Z,14.50
2018-03-30T04:35:14.291Z,14.07
2018-03-30T04:37:43.481Z,13.80
2018-03-30T04:40:12.701Z,15.20
2018-03-30T04:42:41.118Z,15.40
2018-03-30T04:45:09.537Z,15.90
2018-03-30T04:47:38.730Z,12.63
2018-03-30T04:50:07.926Z,15.40
2018-03-30T04:52:37.130Z,13.93
2018-03-30T04:55:06.304Z,12.33
2018-03-30T04:57:34.780Z,14.83
2018-03-30T05:00:03.250Z,14.47
2018-03-30T05:02:31.714Z,12.70
2018-03-30T05:05:00.171Z,16.57
2018-03-30T05:07:28.604Z,14.87
2018-03-30T05:09:57.250Z,16.87
2018-03-30T05:12:25.971Z,19.07
2018-03-30T05:14:54.427Z,21.07
2018-03-30T05:17:22.849Z,26.10
2018-03-30T05:19:52.043Z,22.57
2018-03-30T05:22:21.248Z,24.07
2018-03-30T05:24:49.666Z,25.70
2018-03-30T05:27:18.101Z,24.03
2018-03-30T05:29:47.291Z,24.10
2018-03-30T05:32:16.516Z,22.60
2018-03-30T05:34:44.943Z,26.47
2018-03-30T05:37:13.376Z,26.07
2018-03-30T05:39:41.831Z,22.97
2018-03-30T05:42:10.278Z,14.73
2018-03-30T05:44:38.719Z,25.27
2018-03-30T05:47:07.163Z,23.23
2018-03-30T05:49:36.357Z,21.40
2018-03-30T05:52:05.552Z,25.13
2018-03-30T05:54:34.732Z,22.27
2018-03-30T05:57:03.169Z,21.87
2018-03-30T05:59:31.587Z,17.17
2018-03-30T06:02:00.014Z,20.33
2018-03-30T06:04:28.450Z,17.20
2018-03-30T06:06:58.355Z,17.20
2018-03-30T06:09:27.333Z,13.47
2018-03-30T06:11:55.806Z,10.10
2018-03-30T06:14:24.034Z,12.00
2018-03-30T06:16:52.460Z,11.43
2018-03-30T06:19:20.884Z,16.87
2018-03-30T06:21:49.322Z,16.20
2018-03-30T06:24:17.745Z,10.40
2018-03-30T06:26:46.004Z,13.63
2018-03-30T06:29:14.343Z,9.63
2018-03-30T06:31:42.551Z,11.97
2018-03-30T06:34:11.739Z,8.40
2018-03-30T06:36:40.726Z,12.03
2018-03-30T06:39:09.142Z,15.60
2018-03-30T06:41:37.571Z,11.50
2018-03-30T06:44:06.014Z,8.10
2018-03-30T06:46:34.479Z,8.63
2018-03-30T06:49:03.086Z,12.67
2018-03-30T06:51:31.510Z,12.97
2018-03-30T06:54:00.717Z,11.97
2018-03-30T06:56:29.905Z,11.43
2018-03-30T06:58:59.097Z,8.40
2018-03-30T07:01:28.307Z,11.30
2018-03-30T07:03:56.726Z,8.67
2018-03-30T07:06:25.220Z,4.73
2018-03-30T07:08:53.634Z,9.40
2018-03-30T07:11:23.277Z,4.50
2018-03-30T07:13:51.699Z,3.17
2018-03-30T07:16:20.109Z,6.63
2018-03-30T07:18:48.547Z,5.27
2018-03-30T07:21:16.966Z,5.13
2018-03-30T07:23:45.413Z,4.53
2018-03-30T07:26:13.835Z,5.23
2018-03-30T07:28:42.273Z,4.33
2018-03-30T07:31:10.888Z,3.70
2018-03-30T07:33:39.318Z,3.20
2018-03-30T07:36:07.732Z,2.90
2018-03-30T07:38:36.916Z,2.13
2018-03-30T07:41:06.124Z,1.40
2018-03-30T07:43:35.526Z,2.07
2018-03-30T07:46:03.947Z,3.00
2018-03-30T07:48:32.370Z,6.00
2018-03-30T07:51:01.565Z,3.17
2018-03-30T07:53:30.749Z,3.83
2018-03-30T07:55:59.177Z,2.67
2018-03-30T07:58:28.522Z,2.97
2018-03-30T08:00:57.669Z,3.93
2018-03-30T08:03:26.676Z,3.23
2018-03-30T08:05:55.186Z,4.43
2018-03-30T08:08:23.626Z,4.47
2018-03-30T08:10:52.047Z,3.07
2018-03-30T08:13:20.474Z,3.07
2018-03-30T08:15:48.905Z,2.10
2018-03-30T08:18:17.374Z,2.40
2018-03-30T08:20:45.782Z,3.53
2018-03-30T08:23:14.979Z,1.73
2018-03-30T08:25:44.184Z,2.47
2018-03-30T08:28:12.630Z,4.93
2018-03-30T08:30:41.098Z,2.37
2018-03-30T08:33:09.522Z,2.77
2018-03-30T08:35:37.960Z,4.27
2018-03-30T08:38:06.377Z,2.20
2018-03-30T08:40:34.841Z,2.67
2018-03-30T08:43:04.015Z,1.63
2018-03-30T08:45:32.420Z,2.60
2018-03-30T08:48:01.626Z,1.87
2018-03-30T08:50:31.041Z,4.13
2018-03-30T08:52:59.461Z,2.93
2018-03-30T08:55:27.884Z,3.70
2018-03-30T08:57:56.339Z,4.30
2018-03-30T09:00:25.530Z,3.13
2018-03-30T09:02:53.940Z,3.80
2018-03-30T09:05:22.360Z,5.63
2018-03-30T09:07:50.784Z,4.33
2018-03-30T09:10:20.848Z,5.13
2018-03-30T09:12:49.408Z,4.60
2018-03-30T09:15:17.826Z,5.00
2018-03-30T09:17:46.290Z,4.70
2018-03-30T09:20:15.631Z,1.67
2018-03-30T09:22:44.842Z,3.83
2018-03-30T09:25:13.262Z,3.90
2018-03-30T09:27:41.688Z,3.30
2018-03-30T09:30:10.886Z,4.47
2018-03-30T09:32:40.075Z,6.73
2018-03-30T09:35:09.278Z,5.07
2018-03-30T09:37:38.469Z,4.90
2018-03-30T09:40:07.686Z,3.90
2018-03-30T09:42:36.097Z,5.07
2018-03-30T09:45:04.513Z,3.33
2018-03-30T09:47:33.714Z,4.57
2018-03-30T09:50:02.890Z,5.00
2018-03-30T09:52:31.334Z,4.20
2018-03-30T09:54:59.751Z,4.43
2018-03-30T09:57:28.177Z,4.33
2018-03-30T09:59:56.616Z,5.60
2018-03-30T10:02:28.744Z,5.13
2018-03-30T10:05:00.838Z,6.23
2018-03-30T10:07:28.918Z,5.73
2018-03-30T10:09:58.109Z,4.83
2018-03-30T10:12:26.514Z,4.07
2018-03-30T10:14:54.940Z,4.93
2018-03-30T10:17:23.394Z,4.53
2018-03-30T10:19:52.724Z,5.10
2018-03-30T10:22:21.977Z,4.97
2018-03-30T10:24:50.428Z,4.73
2018-03-30T10:27:20.322Z,2.57
2018-03-30T10:29:48.738Z,3.07
2018-03-30T10:32:17.190Z,3.33
2018-03-30T10:34:46.364Z,3.10
2018-03-30T10:37:14.773Z,4.00
2018-03-30T10:39:43.971Z,3.37
2018-03-30T10:42:13.184Z,2.93
2018-03-30T10:44:41.594Z,3.37
2018-03-30T10:47:10.015Z,3.73
2018-03-30T10:49:39.218Z,3.73
2018-03-30T10:52:08.415Z,3.03
2018-03-30T10:54:37.614Z,2.33
2018-03-30T10:57:06.794Z,2.73
2018-03-30T10:59:35.210Z,1.83
2018-03-30T11:02:03.644Z,2.20
2018-03-30T11:04:32.084Z,2.23
2018-03-30T11:07:00.511Z,2.07
2018-03-30T11:09:29.711Z,2.10
2018-03-30T11:11:58.906Z,1.83
2018-03-30T11:14:28.102Z,2.30
2018-03-30T11:16:57.298Z,2.50
2018-03-30T11:19:26.489Z,2.90
2018-03-30T11:21:55.683Z,2.93
2018-03-30T11:24:24.885Z,4.07
2018-03-30T11:26:54.060Z,2.97
2018-03-30T11:29:22.497Z,3.97
2018-03-30T11:31:50.917Z,4.37
2018-03-30T11:34:19.428Z,3.20
2018-03-30T11:36:48.608Z,3.13
2018-03-30T11:39:17.810Z,5.20
2018-03-30T11:41:47.003Z,3.43
2018-03-30T11:44:16.200Z,3.90
2018-03-30T11:46:45.401Z,3.07
2018-03-30T11:49:14.605Z,3.00
2018-03-30T11:51:44.671Z,2.23
2018-03-30T11:54:13.095Z,4.00
2018-03-30T11:56:42.287Z,4.77
2018-03-30T11:59:11.488Z,4.23
2018-03-30T12:01:40.692Z,3.47
2018-03-30T12:04:09.896Z,3.83
2018-03-30T12:06:38.358Z,5.40
2018-03-30T12:09:07.579Z,4.97
2018-03-30T12:11:36.015Z,4.10
2018-03-30T12:14:04.455Z,6.07
2018-03-30T12:16:32.906Z,5.50
2018-03-30T12:19:01.353Z,4.57
2018-03-30T12:21:29.804Z,4.70
2018-03-30T12:23:58.264Z,4.57
2018-03-30T12:26:26.686Z,5.50
2018-03-30T12:28:55.110Z,4.10
2018-03-30T12:31:23.560Z,5.07
2018-03-30T12:33:52.754Z,4.43
2018-03-30T12:36:22.747Z,4.40
2018-03-30T12:38:52.000Z,6.37
2018-03-30T12:41:20.423Z,5.43
2018-03-30T12:43:48.865Z,6.40
2018-03-30T12:46:17.304Z,6.33
2018-03-30T12:48:45.920Z,5.37
2018-03-30T12:51:14.365Z,5.27
2018-03-30T12:53:43.555Z,7.93
2018-03-30T12:56:12.752Z,7.20
2018-03-30T12:58:41.959Z,5.67
2018-03-30T13:01:11.144Z,5.80
2018-03-30T13:03:40.366Z,7.03
2018-03-30T13:06:08.849Z,6.70
2018-03-30T13:08:37.424Z,6.83
2018-03-30T13:11:05.842Z,8.13
2018-03-30T13:13:34.283Z,5.13
2018-03-30T13:16:02.715Z,6.27
2018-03-30T13:18:31.158Z,6.17
2018-03-30T13:20:59.599Z,8.17
2018-03-30T13:23:28.794Z,6.37
2018-03-30T13:25:57.977Z,7.10
2018-03-30T13:28:26.421Z,6.97
2018-03-30T13:30:54.851Z,5.63
2018-03-30T13:33:24.041Z,6.00
2018-03-30T13:35:53.242Z,6.50
2018-03-30T13:38:22.431Z,5.97
2018-03-30T13:40:51.638Z,7.60
2018-03-30T13:43:21.174Z,3.93
2018-03-30T13:45:50.161Z,6.43
2018-03-30T13:48:18.590Z,4.53
2018-03-30T13:53:59.381Z,3.60
2018-03-30T13:56:29.688Z,3.93
2018-03-30T13:58:59.134Z,5.53
2018-03-30T14:01:29.371Z,5.40
2018-03-30T14:04:02.843Z,4.73
2018-03-30T14:06:37.009Z,8.27
2018-03-30T14:09:22.226Z,13.67
2018-03-30T14:11:56.624Z,6.03
2018-03-30T14:14:24.411Z,6.47
2018-03-30T14:16:56.738Z,6.33
2018-03-30T14:19:27.023Z,4.80
2018-03-30T14:24:52.853Z,4.80
2018-03-30T14:27:20.620Z,7.73
2018-03-30T14:29:50.842Z,3.60
2018-03-30T14:35:22.883Z,3.60
2018-03-30T14:38:09.070Z,3.00
2018-03-30T14:40:36.843Z,3.23
2018-03-30T14:43:10.047Z,3.83
2018-03-30T14:45:54.461Z,3.57
2018-03-30T14:48:25.745Z,3.43
2018-03-30T14:51:08.799Z,3.63
2018-03-30T14:56:38.207Z,4.37
2018-03-30T14:59:14.718Z,3.03
2018-03-30T15:01:43.338Z,3.50
2018-03-30T15:04:24.670Z,3.67
2018-03-30T15:06:53.272Z,3.70
2018-03-30T15:09:21.899Z,3.20
2018-03-30T15:11:58.350Z,4.07
2018-03-30T15:14:26.894Z,3.67
2018-03-30T15:17:00.270Z,3.93
2018-03-30T15:19:28.929Z,2.73
2018-03-30T15:25:08.310Z,5.10
2018-03-30T15:27:36.071Z,5.00
2018-03-30T15:30:12.361Z,5.50
2018-03-30T15:32:43.699Z,7.67
2018-03-30T15:35:12.186Z,4.97
2018-03-30T15:37:40.006Z,3.07
2018-03-30T15:40:11.565Z,2.90
2018-03-30T15:42:55.154Z,2.40
2018-03-30T15:45:26.555Z,2.33
2018-03-30T15:47:54.334Z,2.73
2018-03-30T15:50:22.857Z,1.57
2018-03-30T15:52:52.265Z,1.83
2018-03-30T15:55:20.261Z,2.57
2018-03-30T15:57:48.024Z,1.83
2018-03-30T16:00:17.680Z,3.33
2018-03-30T16:02:46.215Z,1.00
2018-03-30T16:05:13.990Z,1.90
2018-03-30T16:07:41.776Z,1.97
2018-03-30T16:10:11.368Z,1.63
2018-03-30T16:12:40.062Z,1.20
2018-03-30T16:15:07.839Z,1.30
2018-03-30T16:17:36.361Z,2.43
2018-03-30T16:20:03.631Z,1.40
2018-03-30T16:22:30.922Z,3.70
2018-03-30T16:24:58.952Z,2.03
2018-03-30T16:27:26.211Z,2.13
2018-03-30T16:29:53.538Z,1.60
2018-03-30T16:32:21.061Z,1.40
2018-03-30T16:34:49.115Z,4.17
2018-03-30T16:37:18.081Z,1.90
2018-03-30T16:39:45.345Z,2.07
2018-03-30T16:42:12.625Z,2.57
2018-03-30T16:44:40.682Z,2.57
2018-03-30T16:47:08.731Z,2.17
2018-03-30T16:49:36.014Z,1.97
2018-03-30T16:52:04.076Z,1.57
2018-03-30T16:54:32.134Z,1.23
2018-03-30T16:56:59.428Z,1.77
2018-03-30T16:59:26.705Z,1.30
2018-03-30T17:01:53.977Z,1.90
2018-03-30T17:04:21.007Z,1.23
2018-03-30T17:06:48.309Z,1.40
2018-03-30T17:09:16.351Z,2.13
2018-03-30T17:11:43.625Z,0.90
2018-03-30T17:14:11.691Z,1.10
2018-03-30T17:16:39.724Z,2.47
2018-03-30T17:19:07.009Z,2.03
2018-03-30T17:21:35.048Z,1.97
2018-03-30T17:24:02.343Z,0.90
2018-03-30T17:26:30.388Z,1.53
2018-03-30T17:28:57.658Z,0.80
2018-03-30T17:31:25.701Z,1.20
2018-03-30T17:33:52.981Z,1.23
2018-03-30T17:36:21.946Z,2.53
2018-03-30T17:38:50.932Z,2.30
2018-03-30T17:41:18.210Z,3.10
2018-03-30T17:43:46.262Z,1.10
2018-03-30T17:46:13.558Z,1.57
2018-03-30T17:48:40.826Z,1.10
2018-03-30T17:51:08.092Z,1.60
2018-03-30T17:53:35.564Z,1.47
2018-03-30T17:56:02.843Z,1.70
2018-03-30T17:58:30.879Z,1.80
2018-03-30T18:00:58.359Z,2.03
2018-03-30T18:03:26.389Z,1.70
2018-03-30T18:05:53.660Z,2.50
2018-03-30T18:08:21.697Z,1.63
2018-03-30T18:10:48.964Z,1.20
2018-03-30T18:13:16.247Z,1.60
2018-03-30T18:15:44.290Z,2.00
2018-03-30T18:18:11.570Z,1.23
2018-03-30T18:20:39.622Z,2.40
2018-03-30T18:23:06.917Z,2.37
2018-03-30T18:25:34.241Z,2.10
2018-03-30T18:28:01.643Z,1.20
2018-03-30T18:30:28.926Z,2.63
2018-03-30T18:32:56.184Z,2.07
2018-03-30T18:35:23.466Z,1.97
2018-03-30T18:37:51.495Z,1.70
2018-03-30T18:40:18.772Z,1.90
2018-03-30T18:42:46.792Z,3.40
2018-03-30T18:45:14.074Z,2.80
2018-03-30T18:47:41.339Z,2.33
2018-03-30T18:50:08.601Z,4.00
2018-03-30T18:52:36.643Z,2.40
2018-03-30T18:55:03.917Z,2.47
2018-03-30T18:57:31.969Z,2.97
2018-03-30T18:59:59.242Z,1.70
2018-03-30T19:02:27.281Z,4.83
2018-03-30T19:04:54.553Z,3.73
2018-03-30T19:07:21.823Z,4.17
2018-03-30T19:09:49.100Z,2.23
2018-03-30T19:12:16.399Z,2.40
2018-03-30T19:14:43.674Z,2.67
2018-03-30T19:17:11.718Z,3.50
2018-03-30T19:19:39.003Z,2.93
2018-03-30T19:22:06.261Z,2.60
2018-03-30T19:24:33.525Z,2.73
2018-03-30T19:27:03.907Z,3.43
2018-03-30T19:29:31.964Z,3.30
2018-03-30T19:31:59.218Z,2.70
2018-03-30T19:34:26.473Z,3.40
2018-03-30T19:36:53.753Z,3.47
2018-03-30T19:39:21.398Z,3.57
2018-03-30T19:41:49.626Z,4.70
2018-03-30T19:44:16.916Z,4.33
2018-03-30T19:46:44.967Z,4.37
2018-03-30T19:49:12.246Z,4.10
2018-03-30T19:51:40.276Z,4.00
2018-03-30T19:54:07.562Z,5.30
2018-03-30T19:56:35.592Z,5.73
2018-03-30T19:59:02.855Z,7.67
2018-03-30T20:01:30.139Z,6.27
2018-03-30T20:03:58.170Z,5.50
2018-03-30T20:06:25.451Z,5.27
2018-03-30T20:08:53.484Z,5.17
2018-03-30T20:11:21.533Z,5.20
2018-03-30T20:13:48.807Z,6.10
2018-03-30T20:16:16.101Z,6.53
2018-03-30T20:18:44.156Z,4.83
2018-03-30T20:21:11.431Z,5.67
2018-03-30T20:23:38.697Z,6.40
2018-03-30T20:26:05.978Z,5.03
2018-03-30T20:28:33.246Z,6.00
2018-03-30T20:31:00.534Z,6.67
2018-03-30T20:33:27.805Z,7.37
2018-03-30T20:35:55.106Z,8.37
2018-03-30T20:38:28.748Z,8.77
2018-03-30T20:40:56.673Z,7.57
2018-03-30T20:43:24.018Z,7.30
2018-03-30T20:45:51.268Z,11.27
2018-03-30T20:48:18.545Z,10.83
2018-03-30T20:50:45.822Z,11.23
2018-03-30T20:53:13.093Z,10.63
2018-03-30T20:55:41.113Z,10.13
2018-03-30T20:58:08.170Z,12.00
2018-03-30T21:00:35.438Z,10.20
2018-03-30T21:03:02.715Z,10.80
2018-03-30T21:05:30.761Z,11.60
2018-03-30T21:07:58.032Z,12.50
2018-03-30T21:10:26.706Z,9.90
2018-03-30T21:12:54.747Z,12.00
2018-03-30T21:15:22.031Z,11.13
2018-03-30T21:17:50.081Z,12.10
2018-03-30T21:20:17.352Z,9.00
2018-03-30T21:22:45.454Z,9.93
2018-03-30T21:25:12.892Z,10.83
2018-03-30T21:27:40.170Z,8.40
2018-03-30T21:30:07.433Z,10.90
2018-03-30T21:32:34.718Z,10.37
2018-03-30T21:35:02.011Z,11.50
2018-03-30T21:37:29.073Z,12.70
2018-03-30T21:39:56.992Z,10.40
2018-03-30T21:42:25.070Z,11.70
2018-03-30T21:44:53.109Z,14.90
2018-03-30T21:47:20.168Z,10.27
2018-03-30T21:49:48.237Z,11.17
2018-03-30T21:52:16.294Z,11.40
2018-03-30T21:54:43.576Z,10.83
2018-03-30T21:57:11.623Z,10.30
2018-03-30T21:59:38.906Z,11.50
2018-03-30T22:02:06.214Z,10.70
2018-03-30T22:04:33.516Z,11.60
2018-03-30T22:07:00.799Z,11.37
2018-03-30T22:09:28.077Z,11.17
2018-03-30T22:11:55.370Z,9.93
2018-03-30T22:14:22.635Z,12.97
2018-03-30T23:00:30.781Z,13.00
2018-03-30T23:02:58.818Z,13.70
2018-03-30T23:05:26.647Z,11.77
2018-03-30T23:07:53.928Z,12.53
2018-03-30T23:10:21.212Z,13.07
2018-03-30T23:12:49.264Z,11.73
2018-03-30T23:15:16.542Z,11.80
2018-03-30T23:17:43.814Z,13.10
2018-03-30T23:20:11.082Z,12.37
2018-03-30T23:22:38.394Z,11.17
2018-03-30T23:25:06.435Z,12.20
2018-03-30T23:27:33.704Z,12.70
2018-03-30T23:30:01.749Z,10.73
2018-03-30T23:32:29.052Z,10.13
2018-03-30T23:34:56.619Z,13.43
2018-03-30T23:37:24.889Z,10.47
2018-03-30T23:39:52.166Z,9.77
2018-03-30T23:42:19.437Z,10.27
2018-03-30T23:44:46.746Z,11.70
2018-03-30T23:47:14.953Z,10.73
2018-03-30T23:49:42.219Z,10.80
2018-03-30T23:52:09.495Z,10.23
2018-03-30T23:54:37.530Z,10.27
2018-03-30T23:57:04.821Z,11.37
2018-03-30T23:59:32.864Z,11.17
